createdAt,value
2022-09-06T00:00:32.195Z,2.55
2022-09-06T00:03:01.058Z,2.70
2022-09-06T00:05:30.888Z,2.20
2022-09-06T00:08:00.687Z,2.72
2022-09-06T00:10:30.617Z,2.97
2022-09-06T00:13:03.296Z,2.53
2022-09-06T00:15:33.567Z,2.35
2022-09-06T00:18:03.797Z,5.63
2022-09-06T00:20:34.620Z,5.78
2022-09-06T00:23:05.617Z,4.60
2022-09-06T00:25:35.149Z,2.97
2022-09-06T00:28:06.220Z,2.92
2022-09-06T00:30:35.937Z,2.50
2022-09-06T00:33:04.387Z,2.45
2022-09-06T00:35:32.779Z,3.00
2022-09-06T00:38:02.857Z,2.50
2022-09-06T00:40:33.808Z,2.80
2022-09-06T00:43:02.245Z,2.30
2022-09-06T00:45:31.681Z,2.80
2022-09-06T00:48:03.646Z,2.42
2022-09-06T00:50:33.133Z,2.65
2022-09-06T00:53:01.787Z,2.78
2022-09-06T00:55:30.294Z,2.90
2022-09-06T00:57:58.882Z,2.50
2022-09-06T01:00:27.326Z,2.50
2022-09-06T01:02:56.067Z,2.70
2022-09-06T01:05:36.175Z,3.30
2022-09-06T01:08:16.518Z,3.72
2022-09-06T01:11:20.428Z,4.28
2022-09-06T01:13:58.379Z,4.68
2022-09-06T01:16:36.804Z,4.15
2022-09-06T01:19:49.763Z,4.55
2022-09-06T01:22:44.141Z,4.80
2022-09-06T01:25:36.582Z,4.20
2022-09-06T01:28:29.349Z,3.80
2022-09-06T01:31:11.146Z,4.32
2022-09-06T01:33:49.507Z,4.38
2022-09-06T01:36:23.353Z,3.70
2022-09-06T01:38:52.073Z,3.83
2022-09-06T01:41:20.417Z,4.03
2022-09-06T01:43:52.819Z,3.80
2022-09-06T01:46:31.908Z,3.78
2022-09-06T01:49:28.764Z,4.28
2022-09-06T01:52:10.959Z,4.30
2022-09-06T01:55:00.008Z,4.00
2022-09-06T01:57:56.390Z,4.15
2022-09-06T02:00:27.121Z,3.97
2022-09-06T02:03:07.414Z,4.38
2022-09-06T02:05:40.700Z,3.75
2022-09-06T02:08:16.956Z,3.67
2022-09-06T02:10:52.544Z,3.85
2022-09-06T02:13:24.300Z,4.13
2022-09-06T02:16:01.002Z,4.22
2022-09-06T02:18:34.656Z,4.65
2022-09-06T02:21:04.861Z,5.22
2022-09-06T02:23:39.327Z,4.72
2022-09-06T02:26:14.523Z,4.40
2022-09-06T02:28:43.248Z,4.22
2022-09-06T02:31:21.155Z,4.22
2022-09-06T02:33:52.015Z,3.40
2022-09-06T02:36:20.958Z,3.33
2022-09-06T02:38:49.683Z,3.45
2022-09-06T02:41:22.725Z,3.42
2022-09-06T02:43:51.369Z,3.10
2022-09-06T02:46:21.190Z,3.40
2022-09-06T02:48:49.557Z,2.95
2022-09-06T02:51:18.221Z,2.90
2022-09-06T02:53:46.635Z,3.20
2022-09-06T02:56:15.342Z,2.88
2022-09-06T02:58:43.816Z,3.10
2022-09-06T03:01:12.483Z,3.40
2022-09-06T03:03:42.591Z,3.08
2022-09-06T03:06:10.904Z,3.25
2022-09-06T03:08:39.400Z,3.45
2022-09-06T03:11:07.879Z,3.20
2022-09-06T03:13:36.373Z,3.42
2022-09-06T03:16:05.106Z,3.30
2022-09-06T03:18:33.979Z,3.67
2022-09-06T03:21:04.360Z,3.15
2022-09-06T03:23:32.712Z,3.42
2022-09-06T03:26:01.166Z,3.80
2022-09-06T03:28:30.119Z,2.90
2022-09-06T03:30:58.785Z,3.90
2022-09-06T03:33:27.299Z,3.45
2022-09-06T03:35:58.544Z,3.50
2022-09-06T03:38:30.351Z,3.70
2022-09-06T03:40:59.436Z,3.47
2022-09-06T03:43:28.674Z,3.60
2022-09-06T03:45:58.303Z,3.40
2022-09-06T03:48:30.155Z,3.60
2022-09-06T03:51:00.123Z,3.55
2022-09-06T03:53:30.686Z,3.97
2022-09-06T03:55:59.850Z,3.90
2022-09-06T03:58:32.594Z,3.20
2022-09-06T04:01:06.855Z,3.65
2022-09-06T04:03:36.378Z,4.50
2022-09-06T04:06:06.321Z,12.32
2022-09-06T04:08:37.388Z,6.78
2022-09-06T04:11:07.647Z,4.10
2022-09-06T04:13:36.852Z,3.95
2022-09-06T04:16:06.801Z,3.97
2022-09-06T04:18:35.327Z,4.13
2022-09-06T04:21:04.182Z,4.32
2022-09-06T04:23:35.353Z,4.03
2022-09-06T04:26:09.243Z,4.43
2022-09-06T04:28:37.593Z,4.38
2022-09-06T04:31:06.786Z,4.28
2022-09-06T04:33:38.185Z,4.75
2022-09-06T04:36:09.386Z,4.18
2022-09-06T04:38:40.029Z,4.57
2022-09-06T04:41:11.504Z,4.60
2022-09-06T04:43:40.017Z,4.95
2022-09-06T04:46:12.948Z,4.70
2022-09-06T04:48:41.308Z,4.30
2022-09-06T04:51:09.730Z,4.32
2022-09-06T04:53:38.045Z,4.85
2022-09-06T04:56:07.302Z,4.40
2022-09-06T04:58:36.986Z,3.80
2022-09-06T05:01:05.782Z,4.15
2022-09-06T05:03:34.264Z,4.20
2022-09-06T05:06:11.522Z,4.10
2022-09-06T05:08:41.660Z,3.78
2022-09-06T05:11:11.121Z,5.40
2022-09-06T05:13:42.357Z,6.05
2022-09-06T05:16:12.047Z,4.57
2022-09-06T05:18:40.524Z,4.13
2022-09-06T05:21:09.328Z,4.75
2022-09-06T05:23:37.841Z,4.15
2022-09-06T05:26:06.188Z,4.78
2022-09-06T05:28:34.967Z,4.63
2022-09-06T05:31:10.488Z,4.38
2022-09-06T05:33:39.476Z,5.05
2022-09-06T05:36:09.090Z,4.72
2022-09-06T05:38:37.391Z,4.85
2022-09-06T05:41:06.124Z,4.82
2022-09-06T05:43:34.536Z,4.40
2022-09-06T05:46:02.962Z,4.68
2022-09-06T05:48:36.850Z,4.80
2022-09-06T05:51:08.191Z,5.00
2022-09-06T05:53:37.464Z,4.95
2022-09-06T05:56:06.867Z,4.75
2022-09-06T05:58:35.884Z,4.78
2022-09-06T06:01:12.283Z,5.15
2022-09-06T06:03:43.219Z,4.97
2022-09-06T06:06:11.819Z,5.07
2022-09-06T06:08:40.266Z,5.63
2022-09-06T06:11:08.765Z,5.18
2022-09-06T06:13:39.581Z,5.68
2022-09-06T06:16:08.857Z,4.97
2022-09-06T06:18:37.720Z,5.85
2022-09-06T06:21:13.332Z,5.75
2022-09-06T06:23:42.925Z,5.80
2022-09-06T06:26:13.041Z,5.80
2022-09-06T06:28:41.922Z,5.95
2022-09-06T06:31:13.009Z,5.57
2022-09-06T06:33:42.585Z,5.30
2022-09-06T06:36:23.255Z,5.28
2022-09-06T06:38:54.821Z,4.75
2022-09-06T06:41:26.020Z,4.68
2022-09-06T06:43:55.376Z,4.90
2022-09-06T06:46:25.922Z,4.32
2022-09-06T06:48:55.619Z,5.10
2022-09-06T06:51:28.203Z,4.63
2022-09-06T06:53:57.809Z,4.97
2022-09-06T06:56:29.398Z,5.05
2022-09-06T06:59:00.228Z,5.38
2022-09-06T07:01:32.001Z,4.55
2022-09-06T07:04:00.786Z,4.47
2022-09-06T07:09:20.545Z,3.90
2022-09-06T07:11:49.714Z,4.28
2022-09-06T07:14:18.924Z,4.40
2022-09-06T07:16:47.499Z,4.28
2022-09-06T07:22:06.428Z,4.60
2022-09-06T07:24:35.453Z,3.92
2022-09-06T07:29:52.163Z,4.25
2022-09-06T07:32:20.517Z,4.18
2022-09-06T07:34:49.057Z,4.18
2022-09-06T07:37:18.968Z,3.83
2022-09-06T07:39:47.441Z,4.05
2022-09-06T07:42:16.714Z,4.07
2022-09-06T07:44:45.060Z,7.10
2022-09-06T07:53:13.854Z,4.00
2022-09-06T07:55:43.240Z,3.97
2022-09-06T07:58:12.063Z,3.78
2022-09-06T08:00:41.172Z,4.13
2022-09-06T08:03:10.582Z,4.05
2022-09-06T08:11:20.586Z,3.55
2022-09-06T08:13:51.947Z,3.90
2022-09-06T08:16:20.726Z,3.50
2022-09-06T08:18:53.674Z,3.10
2022-09-06T08:21:24.601Z,3.20
2022-09-06T08:23:58.871Z,3.08
2022-09-06T08:26:29.652Z,3.60
2022-09-06T08:29:01.118Z,3.00
2022-09-06T08:31:31.793Z,3.30
2022-09-06T08:34:02.028Z,3.20
2022-09-06T08:36:31.528Z,3.47
2022-09-06T08:39:02.724Z,3.25
2022-09-06T08:41:35.275Z,4.00
2022-09-06T08:47:00.229Z,3.83
2022-09-06T08:49:32.967Z,3.33
2022-09-06T08:52:25.079Z,3.33
2022-09-06T08:55:08.551Z,3.03
2022-09-06T08:57:55.502Z,3.70
2022-09-06T09:00:24.723Z,3.40
2022-09-06T09:03:02.146Z,3.47
2022-09-06T09:05:34.560Z,3.70
2022-09-06T09:08:16.079Z,3.35
2022-09-06T09:10:49.743Z,3.50
2022-09-06T09:13:26.527Z,3.10
2022-09-06T09:15:55.053Z,3.28
2022-09-06T09:18:27.611Z,3.30
2022-09-06T09:20:56.431Z,3.13
2022-09-06T09:23:24.861Z,3.35
2022-09-06T09:26:00.476Z,3.22
2022-09-06T09:28:29.094Z,3.70
2022-09-06T09:30:58.741Z,3.33
2022-09-06T09:33:32.887Z,2.95
2022-09-06T09:36:04.310Z,3.50
2022-09-06T09:38:41.753Z,3.20
2022-09-06T09:41:26.252Z,3.22
2022-09-06T09:44:03.640Z,3.22
2022-09-06T09:46:34.823Z,3.00
2022-09-06T09:49:08.506Z,3.40
2022-09-06T09:51:39.409Z,3.23
2022-09-06T09:54:10.156Z,5.18
2022-09-06T09:56:52.790Z,3.90
2022-09-06T09:59:25.648Z,3.05
2022-09-06T10:01:57.028Z,3.75
2022-09-06T10:04:48.759Z,3.13
2022-09-06T10:07:20.636Z,3.40
2022-09-06T10:09:51.021Z,2.95
2022-09-06T10:12:30.553Z,2.83
2022-09-06T10:15:01.209Z,3.17
2022-09-06T10:17:35.476Z,3.28
2022-09-06T10:20:09.406Z,3.47
2022-09-06T10:22:51.253Z,3.05
2022-09-06T10:25:43.010Z,2.88
2022-09-06T10:28:41.749Z,2.90
2022-09-06T10:31:45.593Z,3.03
2022-09-06T10:34:53.200Z,2.60
2022-09-06T10:37:39.274Z,3.17
2022-09-06T10:40:11.026Z,3.08
2022-09-06T10:42:45.140Z,2.38
2022-09-06T10:45:35.833Z,2.55
2022-09-06T10:48:14.572Z,2.50
2022-09-06T10:50:50.987Z,3.85
2022-09-06T10:53:34.156Z,2.13
2022-09-06T10:56:11.470Z,2.88
2022-09-06T11:01:44.029Z,2.28
2022-09-06T11:04:23.771Z,2.33
2022-09-06T11:06:58.853Z,3.20
2022-09-06T11:09:33.901Z,2.35
2022-09-06T11:12:09.361Z,2.80
2022-09-06T11:14:39.141Z,2.47
2022-09-06T11:17:15.186Z,2.78
2022-09-06T11:19:50.631Z,2.95
2022-09-06T11:22:50.093Z,3.85
2022-09-06T11:25:52.735Z,3.67
2022-09-06T11:28:30.244Z,2.70
2022-09-06T11:30:59.698Z,3.00
2022-09-06T11:33:31.859Z,3.13
2022-09-06T11:36:20.015Z,2.53
2022-09-06T11:38:57.101Z,2.55
2022-09-06T11:41:31.771Z,2.60
2022-09-06T11:44:00.962Z,3.60
2022-09-06T11:46:59.709Z,3.08
2022-09-06T11:49:41.911Z,2.78
2022-09-06T11:53:04.261Z,2.80
2022-09-06T11:55:37.977Z,2.63
2022-09-06T11:58:12.232Z,2.90
2022-09-06T12:00:40.804Z,2.80
2022-09-06T12:06:19.120Z,2.88
2022-09-06T12:08:48.670Z,2.95
2022-09-06T12:11:30.958Z,2.30
2022-09-06T12:14:03.805Z,2.47
2022-09-06T12:17:28.018Z,2.33
2022-09-06T12:20:06.211Z,3.58
2022-09-06T12:23:06.316Z,2.70
2022-09-06T12:25:57.384Z,3.38
2022-09-06T12:28:48.411Z,3.13
2022-09-06T12:31:39.540Z,3.53
2022-09-06T12:34:13.927Z,2.90
2022-09-06T12:36:56.619Z,3.17
2022-09-06T12:39:26.842Z,2.60
2022-09-06T12:41:59.067Z,2.83
2022-09-06T12:44:35.044Z,3.10
2022-09-06T12:47:12.980Z,2.78
2022-09-06T12:49:41.374Z,3.40
2022-09-06T12:52:13.809Z,2.97
2022-09-06T12:54:50.549Z,2.90
2022-09-06T12:57:22.774Z,2.97
2022-09-06T12:59:54.761Z,2.65
2022-09-06T13:02:37.206Z,3.00
2022-09-06T13:05:11.090Z,3.53
2022-09-06T13:07:44.188Z,2.90
2022-09-06T13:10:17.271Z,2.83
2022-09-06T13:12:49.035Z,2.90
2022-09-06T13:15:21.525Z,3.17
2022-09-06T13:17:50.558Z,2.55
2022-09-06T13:20:29.858Z,2.83
2022-09-06T13:23:09.841Z,2.90
2022-09-06T13:25:51.178Z,2.65
2022-09-06T13:28:29.289Z,3.00
2022-09-06T13:31:09.406Z,2.63
2022-09-06T13:33:38.992Z,2.60
2022-09-06T13:36:19.743Z,3.15
2022-09-06T13:38:48.292Z,2.40
2022-09-06T13:41:42.005Z,2.88
2022-09-06T13:44:29.602Z,2.75
2022-09-06T13:46:58.499Z,3.30
2022-09-06T13:49:28.301Z,3.05
2022-09-06T13:52:01.304Z,9.82
2022-09-06T13:54:30.761Z,3.22
2022-09-06T13:57:01.692Z,5.63
2022-09-06T13:59:31.866Z,3.63
2022-09-06T14:02:07.663Z,3.30
2022-09-06T14:04:36.636Z,3.88
2022-09-06T14:07:06.173Z,3.95
2022-09-06T14:09:34.736Z,3.65
2022-09-06T14:12:06.861Z,3.58
2022-09-06T14:14:35.659Z,3.63
2022-09-06T14:17:05.143Z,3.40
2022-09-06T14:19:33.694Z,3.65
2022-09-06T14:22:02.231Z,4.10
2022-09-06T14:24:30.790Z,3.60
2022-09-06T14:26:59.324Z,3.83
2022-09-06T14:29:29.107Z,3.40
2022-09-06T14:31:57.593Z,3.33
2022-09-06T14:34:26.069Z,3.88
2022-09-06T14:36:54.425Z,3.28
2022-09-06T14:39:22.843Z,3.80
2022-09-06T14:41:52.164Z,3.75
2022-09-06T14:44:20.942Z,3.50
2022-09-06T14:46:53.389Z,3.28
2022-09-06T14:49:22.246Z,3.67
2022-09-06T14:51:52.707Z,3.58
2022-09-06T14:54:24.142Z,3.33
2022-09-06T14:56:56.428Z,4.30
2022-09-06T14:59:25.231Z,3.78
2022-09-06T15:01:55.290Z,3.38
2022-09-06T15:04:23.910Z,4.55
2022-09-06T15:06:52.729Z,4.00
2022-09-06T15:09:21.195Z,3.42
2022-09-06T15:11:52.222Z,3.33
2022-09-06T15:14:23.152Z,3.10
2022-09-06T15:16:56.692Z,3.45
2022-09-06T15:19:26.842Z,3.80
2022-09-06T15:21:56.234Z,3.00
2022-09-06T15:24:25.587Z,3.25
2022-09-06T15:26:54.254Z,4.00
2022-09-06T15:29:23.360Z,3.30
2022-09-06T15:31:52.087Z,3.35
2022-09-06T15:34:24.723Z,3.20
2022-09-06T15:36:54.461Z,3.80
2022-09-06T15:39:23.444Z,4.82
2022-09-06T15:41:52.662Z,6.20
2022-09-06T15:44:22.249Z,10.77
2022-09-06T15:46:53.834Z,10.48
2022-09-06T15:49:28.425Z,15.20
2022-09-06T15:51:58.373Z,22.73
2022-09-06T15:54:41.240Z,18.88
2022-09-06T15:57:10.361Z,9.75
2022-09-06T15:59:40.328Z,5.53
2022-09-06T16:02:09.239Z,4.88
2022-09-06T16:04:39.207Z,6.40
2022-09-06T16:07:08.090Z,6.93
2022-09-06T16:09:36.636Z,3.95
2022-09-06T16:12:05.865Z,5.72
2022-09-06T16:14:34.831Z,15.00
2022-09-06T16:17:03.299Z,13.50
2022-09-06T16:19:31.826Z,11.27
2022-09-06T16:22:02.542Z,10.15
2022-09-06T16:24:31.220Z,9.02
2022-09-06T16:26:59.666Z,10.27
2022-09-06T16:29:28.282Z,4.90
2022-09-06T16:31:59.906Z,3.47
2022-09-06T16:34:28.555Z,2.72
2022-09-06T16:36:57.199Z,2.47
2022-09-06T16:39:27.102Z,2.70
2022-09-06T16:41:55.722Z,2.70
2022-09-06T16:44:24.132Z,2.55
2022-09-06T16:46:53.649Z,2.55
2022-09-06T16:49:22.221Z,3.95
2022-09-06T16:51:51.629Z,3.03
2022-09-06T16:54:20.784Z,2.72
2022-09-06T16:56:51.152Z,3.67
2022-09-06T16:59:21.649Z,2.53
2022-09-06T17:01:51.479Z,2.00
2022-09-06T17:04:20.237Z,2.00
2022-09-06T17:06:48.934Z,2.80
2022-09-06T17:09:20.328Z,2.42
2022-09-06T17:11:50.955Z,2.38
2022-09-06T17:14:19.988Z,2.53
2022-09-06T17:17:07.328Z,2.17
2022-09-06T17:19:37.638Z,1.95
2022-09-06T17:22:06.555Z,2.00
2022-09-06T17:24:35.102Z,2.08
2022-09-06T17:27:05.973Z,2.28
2022-09-06T17:29:34.932Z,2.55
2022-09-06T17:32:09.911Z,2.53
2022-09-06T17:34:39.284Z,2.38
2022-09-06T17:37:08.217Z,2.80
2022-09-06T17:39:36.989Z,2.60
2022-09-06T17:42:07.791Z,2.47
2022-09-06T17:44:36.449Z,2.70
2022-09-06T17:47:13.762Z,2.60
2022-09-06T17:49:43.446Z,2.70
2022-09-06T17:52:12.395Z,2.78
2022-09-06T17:54:40.792Z,3.13
2022-09-06T17:57:10.637Z,2.97
2022-09-06T17:59:39.536Z,2.50
2022-09-06T18:02:08.822Z,2.42
2022-09-06T18:04:38.139Z,2.72
2022-09-06T18:07:06.694Z,2.83
2022-09-06T18:09:36.905Z,2.65
2022-09-06T18:12:06.759Z,2.47
2022-09-06T18:14:36.878Z,3.30
2022-09-06T18:17:05.645Z,3.08
2022-09-06T18:19:34.090Z,3.03
2022-09-06T18:22:02.599Z,2.63
2022-09-06T18:24:31.134Z,2.80
2022-09-06T18:27:00.002Z,2.33
2022-09-06T18:29:28.603Z,2.22
2022-09-06T18:31:58.576Z,3.10
2022-09-06T18:34:27.138Z,2.38
2022-09-06T18:36:55.702Z,3.00
2022-09-06T18:39:24.382Z,2.58
2022-09-06T18:42:01.992Z,3.08
2022-09-06T18:44:33.349Z,3.00
2022-09-06T18:47:06.174Z,2.97
2022-09-06T18:49:38.548Z,14.48
2022-09-06T18:52:10.890Z,4.80
2022-09-06T18:54:39.724Z,3.10
2022-09-06T18:57:08.870Z,2.85
2022-09-06T18:59:38.176Z,48.85
2022-09-06T19:02:08.595Z,28.98
2022-09-06T19:04:37.221Z,19.15
2022-09-06T19:07:05.834Z,7.00
2022-09-06T19:09:37.575Z,3.05
2022-09-06T19:12:06.248Z,2.75
2022-09-06T19:14:34.876Z,3.33
2022-09-06T19:17:06.854Z,4.55
2022-09-06T19:19:38.594Z,3.47
2022-09-06T19:22:07.313Z,4.22
2022-09-06T19:24:36.072Z,4.22
2022-09-06T19:27:05.804Z,3.80
2022-09-06T19:29:34.362Z,3.83
2022-09-06T19:32:04.111Z,4.07
2022-09-06T19:34:33.674Z,3.85
2022-09-06T19:37:03.491Z,4.13
2022-09-06T19:39:36.800Z,4.30
2022-09-06T19:42:09.107Z,6.13
2022-09-06T19:44:37.503Z,4.93
2022-09-06T19:47:06.253Z,5.22
2022-09-06T19:49:34.708Z,4.82
2022-09-06T19:52:09.533Z,5.65
2022-09-06T19:54:38.209Z,5.03
2022-09-06T19:57:07.050Z,6.32
2022-09-06T19:59:36.553Z,6.25
2022-09-06T20:02:05.141Z,6.43
2022-09-06T20:04:33.718Z,7.25
2022-09-06T20:07:03.337Z,7.25
2022-09-06T20:09:33.780Z,7.00
2022-09-06T20:12:02.198Z,7.00
2022-09-06T20:14:31.241Z,6.40
2022-09-06T20:17:16.739Z,5.55
2022-09-06T20:19:49.047Z,5.72
2022-09-06T20:22:18.104Z,5.65
2022-09-06T20:24:50.706Z,5.18
2022-09-06T20:27:19.509Z,5.40
2022-09-06T20:29:48.353Z,5.50
2022-09-06T20:32:17.639Z,5.18
2022-09-06T20:34:46.134Z,4.00
2022-09-06T20:37:15.129Z,3.90
2022-09-06T20:39:43.778Z,4.20
2022-09-06T20:42:13.848Z,3.80
2022-09-06T20:44:42.557Z,3.78
2022-09-06T20:47:11.060Z,3.78
2022-09-06T20:49:39.598Z,3.72
2022-09-06T20:52:08.294Z,4.00
2022-09-06T20:54:37.292Z,4.20
2022-09-06T20:57:05.856Z,3.80
2022-09-06T20:59:36.045Z,3.40
2022-09-06T21:02:04.747Z,3.30
2022-09-06T21:04:33.270Z,3.63
2022-09-06T21:07:01.805Z,3.00
2022-09-06T21:09:31.010Z,2.40
2022-09-06T21:11:59.566Z,3.20
2022-09-06T21:14:28.050Z,3.30
2022-09-06T21:16:58.329Z,3.05
2022-09-06T21:19:26.841Z,3.75
2022-09-06T21:21:55.271Z,3.40
2022-09-06T21:24:23.760Z,2.95
2022-09-06T21:26:52.271Z,3.75
2022-09-06T21:29:20.744Z,4.40
2022-09-06T21:31:49.192Z,3.42
2022-09-06T21:34:19.105Z,4.38
2022-09-06T21:36:47.492Z,3.72
2022-09-06T21:39:16.363Z,3.38
2022-09-06T21:41:46.439Z,3.40
2022-09-06T21:44:15.376Z,3.28
2022-09-06T21:46:44.347Z,2.65
2022-09-06T21:49:14.669Z,2.63
2022-09-06T21:51:44.567Z,3.10
2022-09-06T21:54:13.213Z,2.60
2022-09-06T21:56:41.993Z,2.70
2022-09-06T21:59:11.526Z,2.40
2022-09-06T22:01:43.144Z,2.25
2022-09-06T22:04:13.904Z,2.05
2022-09-06T22:06:43.916Z,2.80
2022-09-06T22:09:14.017Z,2.80
2022-09-06T22:11:44.556Z,2.60
2022-09-06T22:14:15.655Z,3.08
2022-09-06T22:16:44.678Z,2.40
2022-09-06T22:19:15.081Z,2.22
2022-09-06T22:21:45.521Z,2.63
2022-09-06T22:24:14.638Z,2.35
2022-09-06T22:26:43.725Z,2.03
2022-09-06T22:29:15.064Z,2.08
2022-09-06T22:31:44.311Z,2.15
2022-09-06T22:34:12.977Z,2.40
2022-09-06T22:36:41.822Z,3.22
2022-09-06T22:39:11.695Z,2.33
2022-09-06T22:41:40.325Z,1.90
2022-09-06T22:44:08.848Z,2.80
2022-09-06T22:46:38.315Z,2.80
2022-09-06T22:49:06.956Z,2.33
2022-09-06T22:51:36.674Z,2.70
2022-09-06T22:54:06.886Z,2.53
2022-09-06T22:56:36.825Z,2.92
2022-09-06T22:59:05.531Z,2.80
2022-09-06T23:01:38.849Z,2.70
2022-09-06T23:04:07.771Z,2.55
2022-09-06T23:06:37.322Z,3.05
2022-09-06T23:09:06.979Z,2.70
2022-09-06T23:11:36.955Z,4.18
2022-09-06T23:14:05.930Z,4.20
2022-09-06T23:16:34.709Z,3.42
2022-09-06T23:19:03.242Z,3.25
2022-09-06T23:21:32.501Z,2.58
2022-09-06T23:24:01.034Z,2.70
2022-09-06T23:26:33.388Z,2.30
2022-09-06T23:29:03.494Z,2.17
2022-09-06T23:31:33.403Z,2.53
2022-09-06T23:34:03.195Z,2.25
2022-09-06T23:36:32.739Z,2.28
2022-09-06T23:39:02.285Z,2.40
2022-09-06T23:41:31.224Z,2.35
2022-09-06T23:44:00.086Z,2.30
2022-09-06T23:46:30.104Z,2.40
2022-09-06T23:48:58.863Z,2.75
2022-09-06T23:51:27.555Z,2.65
2022-09-06T23:53:56.009Z,2.65
2022-09-06T23:56:24.587Z,3.08
2022-09-06T23:58:53.241Z,2.58
